Adams Mills, OH

2:08 PM EDT on August 22, 2014 (GMT -0400)
RAWS BLUE ROCK OH US | Change Station
CLOSE
Current Station
Personal Weather Station
Location: Nashport, OH
Elevation: 641 ft
Nearby Weather Stations

Elev 641 ft 40.00 °N, 82.08 °W | Updated 45 minutes ago

Mostly Cloudy
Mostly Cloudy
82 °F
Feels Like 90 °F
N
1
Wind Variable Wind from WNW
Gusts 3.0 mph

Today
High -- | Low -- °F
--% Chance of Precip.
Yesterday
High -- | Low -- °F
Precip. -- in
6:46 AM 8:14 PM
Waning Crescent, 7% visible
Pressure 29.97 in
Visibility 10.0 miles
Clouds Few 2600 ft
Mostly Cloudy 3300 ft
Heat Index 90 °F
Dew Point 77 °F
Humidity 86%
Rainfall 0.00 in
Snow Depth Not available.
UV 5 out of 12
Pollen 6.50 out of 12
Ozone Good
PM2.5 Good
Flu Activity Not available.
METAR KZZV 221753Z AUTO 17005KT 10SM FEW026 BKN033 26/21 A2999 RMK AO2 SLP148 T02610211 10261 20211 56007

More Conditions Fewer Conditions

Pressure 29.97 in
Visibility 10.0 miles
Clouds Few 2600 ft
Mostly Cloudy 3300 ft
Heat Index 90 °F
Dew Point 77 °F
Humidity 86%
Rainfall 0.00 in
Snow Depth Not available.
UV 5 out of 12
Pollen 6.50 out of 12
Ozone Good
PM2.5 Good
Flu Activity Not available.
METAR KZZV 221753Z AUTO 17005KT 10SM FEW026 BKN033 26/21 A2999 RMK AO2 SLP148 T02610211 10261 20211 56007

More Conditions Fewer Conditions

10-Day Weather Forecast

Almanac

Astronomy

Aug. 22, 2014 Rise Set
Actual Time 6:46 AM EDT 8:14 PM EDT
Civil Twilight 6:17 AM EDT 8:43 PM EDT
Nautical Twilight 5:43 AM EDT 9:17 PM EDT
Astronomical Twilight 5:06 AM EDT 9:53 PM EDT
Moon 4:07 AM EDT 6:22 PM EDT
Length of Visible Light 14h 25m
Length of Day
13h 28m
Tomorrow will be 2m 27s shorter.
Waning Crescent, 7% of the Moon is Illuminated
Today
Waning Crescent
Aug 25
New
Sep 2
First Quarter
Sep 8
Full
Sep 15
Last Quarter

Today's Extremes

State Highs State Lows

Community

WunderPhotos

Upload Photos

1,746,213 photos uploaded!

WunderBlogs® & News

Nearby

Air Quality

  Air Quality AQ Index Pollutant
Yesterday Good
PM2.5
Yesterday Good
OZONE
Current Good
PM2.5
Current Good
OZONE
Friday Moderate
PM2.5
Friday Good
OZONE
Saturday Moderate
OZONE
Saturday Moderate
PM2.5
Sunday Moderate
OZONE
Sunday Moderate
PM2.5
Monday Moderate
OZONE
Monday Moderate
PM2.5
Tuesday Moderate
OZONE
Tuesday Moderate
PM2.5
Wednesday Moderate
OZONE
Wednesday Moderate
PM2.5

Snow Depth

Station Depth Elevation
No new snow has been reported.

Earthquake Activity

City Distance Mag. Time & Date
No recent earthquake activity has been reported nearby.
Minimum magnitude displayed is 2.5.

Coastal Water Temperatures

Place Temperature
No Stations Reporting

Nearby Weather Stations